createdAt,value
2022-11-04T04:02:40.100Z,92.96
2022-11-04T04:03:40.624Z,93.10
2022-11-04T04:04:40.088Z,92.14
2022-11-04T04:05:42.718Z,92.34
2022-11-04T04:06:41.342Z,92.55
2022-11-04T04:07:42.135Z,92.03
2022-11-04T04:08:42.209Z,92.24
2022-11-04T04:09:42.221Z,92.24
2022-11-04T04:10:41.153Z,92.24
2022-11-04T04:11:42.246Z,92.24
2022-11-04T04:12:41.165Z,91.93
2022-11-04T04:13:41.132Z,91.97
2022-11-04T04:14:41.133Z,92.34
2022-11-04T04:15:41.125Z,92.24
2022-11-04T04:16:41.112Z,92.34
2022-11-04T04:17:41.113Z,92.28
2022-11-04T04:18:41.715Z,93.30
2022-11-04T04:19:41.989Z,93.41
2022-11-04T04:20:41.122Z,94.02
2022-11-04T04:21:41.065Z,93.67
2022-11-04T04:22:41.080Z,93.71
2022-11-04T04:23:41.572Z,94.33
2022-11-04T04:24:41.168Z,94.02
2022-11-04T04:25:41.055Z,94.43
2022-11-04T04:26:41.138Z,94.54
2022-11-04T04:27:41.022Z,94.95
2022-11-04T04:28:41.069Z,95.25
2022-11-04T04:29:41.005Z,95.56
2022-11-04T04:30:41.783Z,95.50
2022-11-04T04:31:41.010Z,95.40
2022-11-04T04:32:40.993Z,95.36
2022-11-04T04:33:40.981Z,95.70
2022-11-04T04:34:40.992Z,96.32
2022-11-04T04:35:41.035Z,95.91
2022-11-04T04:36:41.087Z,96.22
2022-11-04T04:37:40.960Z,96.01
2022-11-04T04:38:40.976Z,96.63
2022-11-04T04:39:41.750Z,96.73
2022-11-04T04:40:41.617Z,96.63
2022-11-04T04:41:42.227Z,96.53
2022-11-04T04:42:40.914Z,96.42
2022-11-04T04:43:40.911Z,96.22
2022-11-04T04:44:40.889Z,96.53
2022-11-04T04:45:41.911Z,96.73
2022-11-04T04:46:41.028Z,96.53
2022-11-04T04:47:40.878Z,96.01
2022-11-04T04:48:41.579Z,96.73
2022-11-04T04:49:40.885Z,96.22
2022-11-04T04:50:41.710Z,96.01
2022-11-04T04:51:40.848Z,96.12
2022-11-04T04:52:40.853Z,96.22
2022-11-04T04:53:40.865Z,95.97
2022-11-04T04:54:40.846Z,96.07
2022-11-04T04:55:41.951Z,96.32
2022-11-04T04:56:40.815Z,96.73
2022-11-04T04:57:40.854Z,96.22
2022-11-04T04:58:40.827Z,96.32
2022-11-04T04:59:40.802Z,96.01
2022-11-04T05:00:40.766Z,96.12
2022-11-04T05:01:41.047Z,96.07
2022-11-04T05:02:40.831Z,95.87
2022-11-04T05:03:44.965Z,95.87
2022-11-04T05:04:41.786Z,96.12
2022-11-04T05:05:40.740Z,96.53
2022-11-04T05:06:40.885Z,96.42
2022-11-04T05:07:40.759Z,96.63
2022-11-04T05:08:40.714Z,97.04
2022-11-04T05:09:40.730Z,97.04
2022-11-04T05:10:40.704Z,97.14
2022-11-04T05:11:40.685Z,97.39
2022-11-04T05:12:40.682Z,97.19
2022-11-04T05:13:40.731Z,97.60
2022-11-04T05:14:40.682Z,97.60
2022-11-04T05:15:40.653Z,98.11
2022-11-04T05:16:41.112Z,97.95
2022-11-04T05:17:41.705Z,98.05
2022-11-04T05:18:40.691Z,98.00
2022-11-04T05:19:40.696Z,98.36
2022-11-04T05:20:41.268Z,98.16
2022-11-04T05:21:40.716Z,98.00
2022-11-04T05:22:40.663Z,97.91
2022-11-04T05:23:41.092Z,98.16
2022-11-04T05:24:40.654Z,98.05
2022-11-04T05:25:40.688Z,97.91
2022-11-04T05:26:40.672Z,97.85
2022-11-04T05:27:40.561Z,97.64
2022-11-04T05:28:40.561Z,97.44
2022-11-04T05:29:40.553Z,97.23
2022-11-04T05:30:40.560Z,98.57
2022-11-04T05:31:41.405Z,97.85
2022-11-04T05:32:40.553Z,97.85
2022-11-04T05:33:40.528Z,98.57
2022-11-04T05:34:40.522Z,97.85
2022-11-04T05:35:40.499Z,98.25
2022-11-04T05:36:42.500Z,97.64
2022-11-04T05:37:40.503Z,97.13
2022-11-04T05:38:40.661Z,97.54
2022-11-04T05:39:40.493Z,97.33
2022-11-04T05:40:40.534Z,97.03
2022-11-04T05:41:40.509Z,96.51
2022-11-04T05:42:41.278Z,96.72
2022-11-04T05:43:41.260Z,96.72
2022-11-04T05:44:42.307Z,95.65
2022-11-04T05:45:40.440Z,95.44
2022-11-04T05:46:40.433Z,96.37
2022-11-04T05:47:40.438Z,96.37
2022-11-04T05:48:40.850Z,96.72
2022-11-04T05:49:41.392Z,96.51
2022-11-04T05:50:41.096Z,97.03
2022-11-04T05:51:41.233Z,97.03
2022-11-04T05:52:40.409Z,97.69
2022-11-04T05:53:40.547Z,97.48
2022-11-04T05:54:41.263Z,97.58
2022-11-04T05:55:41.270Z,97.99
2022-11-04T05:56:40.342Z,98.35
2022-11-04T05:57:40.361Z,98.25
2022-11-04T05:58:40.425Z,98.04
2022-11-04T05:59:40.345Z,98.45
2022-11-04T06:00:40.340Z,98.45
2022-11-04T06:01:40.404Z,99.01
2022-11-04T06:02:40.376Z,98.55
2022-11-04T06:03:40.297Z,98.66
2022-11-04T06:04:40.305Z,98.96
2022-11-04T06:05:40.326Z,98.76
2022-11-04T06:06:40.290Z,98.76
2022-11-04T06:07:40.278Z,98.80
2022-11-04T06:08:44.999Z,99.32
2022-11-04T06:09:42.276Z,99.52
2022-11-04T06:10:40.284Z,99.21
2022-11-04T06:11:40.258Z,99.21
2022-11-04T06:12:40.336Z,99.42
2022-11-04T06:13:40.252Z,99.42
2022-11-04T06:14:40.231Z,99.42
2022-11-04T06:15:40.262Z,99.21
2022-11-04T06:16:40.189Z,99.42
2022-11-04T06:17:40.189Z,99.21
2022-11-04T06:18:40.184Z,99.42
2022-11-04T06:19:40.205Z,99.42
2022-11-04T06:20:40.202Z,99.47
2022-11-04T06:21:40.167Z,99.26
2022-11-04T06:22:40.199Z,99.63
2022-11-04T06:23:40.164Z,99.77
2022-11-04T06:24:40.200Z,99.57
2022-11-04T06:25:40.161Z,99.77
2022-11-04T06:26:40.285Z,99.99
2022-11-04T06:27:40.757Z,99.99
2022-11-04T06:28:40.135Z,99.88
2022-11-04T06:29:40.322Z,99.99
2022-11-04T06:30:40.130Z,99.98
2022-11-04T06:31:40.246Z,99.99
2022-11-04T06:32:40.090Z,99.98
2022-11-04T06:33:40.110Z,99.83
2022-11-04T06:34:40.134Z,99.98
2022-11-04T06:35:40.054Z,99.99
2022-11-04T06:36:40.035Z,99.99
2022-11-04T06:37:41.257Z,99.99
2022-11-04T06:38:40.106Z,99.99
2022-11-04T06:39:40.048Z,99.99
2022-11-04T06:40:40.071Z,99.99
2022-11-04T06:41:42.841Z,99.93
2022-11-04T06:42:40.142Z,99.98
2022-11-04T06:43:40.015Z,99.99
2022-11-04T06:44:41.306Z,99.99
2022-11-04T06:45:40.618Z,99.99
2022-11-04T06:46:39.981Z,99.99
2022-11-04T06:47:39.997Z,99.98
2022-11-04T06:48:40.026Z,99.98
2022-11-04T06:49:39.957Z,99.99
2022-11-04T06:50:40.767Z,99.99
2022-11-04T06:51:39.937Z,99.99
2022-11-04T06:52:42.529Z,99.99
2022-11-04T06:53:40.922Z,99.99
2022-11-04T06:54:39.963Z,99.98
2022-11-04T06:55:39.977Z,99.99
2022-11-04T06:56:39.911Z,99.98
2022-11-04T06:57:39.925Z,99.99
2022-11-04T06:58:39.934Z,99.99
2022-11-04T06:59:39.930Z,99.99
2022-11-04T07:00:39.949Z,99.99
2022-11-04T07:01:40.015Z,99.99
2022-11-04T07:02:40.915Z,99.99
2022-11-04T07:03:39.852Z,99.99
2022-11-04T07:04:39.940Z,99.99
2022-11-04T07:05:39.910Z,99.99
2022-11-04T07:06:42.808Z,99.99
2022-11-04T07:07:39.820Z,99.99
2022-11-04T07:08:39.834Z,99.99
2022-11-04T07:09:39.808Z,99.99
2022-11-04T07:10:39.786Z,99.99
2022-11-04T07:11:39.792Z,99.99
2022-11-04T07:12:39.787Z,99.99
2022-11-04T07:13:39.780Z,99.99
2022-11-04T07:14:39.758Z,99.99
2022-11-04T07:15:39.750Z,99.99
2022-11-04T07:16:39.768Z,99.99
2022-11-04T07:17:39.750Z,99.99
2022-11-04T07:18:39.732Z,99.99
2022-11-04T07:19:39.717Z,99.99
2022-11-04T07:20:39.873Z,99.99
2022-11-04T07:21:39.728Z,99.99
2022-11-04T07:23:11.610Z,99.99
2022-11-04T07:24:11.632Z,99.99
2022-11-04T07:25:11.597Z,99.99
2022-11-04T07:25:39.668Z,99.99
2022-11-04T07:26:39.677Z,99.99
2022-11-04T07:27:39.643Z,99.99
2022-11-04T07:28:39.629Z,99.99
2022-11-04T07:29:39.684Z,99.99
2022-11-04T07:30:39.697Z,99.99
2022-11-04T07:31:39.614Z,99.99
2022-11-04T07:32:39.594Z,99.99
2022-11-04T07:33:39.626Z,99.99
2022-11-04T07:34:39.600Z,99.99
2022-11-04T07:35:39.663Z,99.99
2022-11-04T07:36:39.603Z,99.99
2022-11-04T07:37:40.404Z,99.99
2022-11-04T07:38:39.559Z,99.99
2022-11-04T07:39:39.552Z,99.99
2022-11-04T07:40:39.552Z,99.99
2022-11-04T07:41:39.581Z,99.99
2022-11-04T07:42:39.559Z,99.99
2022-11-04T07:43:40.257Z,99.99
2022-11-04T07:44:39.556Z,99.99
2022-11-04T07:45:39.509Z,99.99
2022-11-04T07:46:39.539Z,99.93
2022-11-04T07:47:39.565Z,99.99
2022-11-04T07:48:39.586Z,99.99
2022-11-04T07:49:39.573Z,99.77
2022-11-04T07:50:40.804Z,99.63
2022-11-04T07:51:40.304Z,99.42
2022-11-04T07:52:39.474Z,99.73
2022-11-04T07:53:41.887Z,99.52
2022-11-04T07:54:40.357Z,99.42
2022-11-04T07:55:43.346Z,99.42
2022-11-04T07:56:40.529Z,99.42
2022-11-04T07:57:39.439Z,99.42
2022-11-04T07:58:39.428Z,99.27
2022-11-04T07:59:39.459Z,98.66
2022-11-04T08:00:39.443Z,98.96
2022-11-04T08:01:39.435Z,98.86
2022-11-04T08:02:39.488Z,98.76
2022-11-04T08:03:39.420Z,98.76
2022-11-04T08:04:39.370Z,98.35
2022-11-04T08:05:39.366Z,98.76
2022-11-04T08:06:39.344Z,98.41
2022-11-04T08:07:39.404Z,97.89
2022-11-04T08:08:39.356Z,98.20
2022-11-04T08:09:39.324Z,97.89
2022-11-04T08:10:39.375Z,98.20
2022-11-04T08:11:39.335Z,98.30
2022-11-04T08:12:39.389Z,98.41
2022-11-04T08:13:39.302Z,98.30
2022-11-04T08:14:39.323Z,98.57
2022-11-04T08:15:39.288Z,98.25
2022-11-04T08:16:39.325Z,97.99
2022-11-04T08:17:39.260Z,98.41
2022-11-04T08:18:39.276Z,97.74
2022-11-04T08:19:39.299Z,98.16
2022-11-04T08:20:39.951Z,97.33
2022-11-04T08:21:39.358Z,97.64
2022-11-04T08:22:39.228Z,97.13
2022-11-04T08:23:39.224Z,97.23
2022-11-04T08:24:40.583Z,97.03
2022-11-04T08:25:39.879Z,97.03
2022-11-04T08:26:39.205Z,97.03
2022-11-04T08:27:41.913Z,96.37
2022-11-04T08:28:39.224Z,95.75
2022-11-04T08:29:39.241Z,95.65
2022-11-04T08:30:39.194Z,96.22
2022-11-04T08:31:39.215Z,95.81
2022-11-04T08:32:39.824Z,95.50
2022-11-04T08:33:39.828Z,95.81
2022-11-04T08:34:39.172Z,96.32
2022-11-04T08:35:41.160Z,95.05
2022-11-04T08:36:40.118Z,95.36
2022-11-04T08:37:40.149Z,95.15
2022-11-04T08:38:39.128Z,95.05
2022-11-04T08:39:39.111Z,95.46
2022-11-04T08:40:39.127Z,94.84
2022-11-04T08:41:39.100Z,94.70
2022-11-04T08:42:39.146Z,94.80
2022-11-04T08:43:39.119Z,94.59
2022-11-04T08:44:39.338Z,93.67
2022-11-04T08:45:39.206Z,93.22
2022-11-04T08:46:39.125Z,93.22
2022-11-04T08:47:39.886Z,92.71
2022-11-04T08:48:39.083Z,91.85
2022-11-04T08:49:39.044Z,91.95
2022-11-04T08:50:39.908Z,91.85
2022-11-04T08:51:39.085Z,91.29
2022-11-04T08:52:39.098Z,91.05
2022-11-04T08:53:40.127Z,90.80
2022-11-04T08:54:39.006Z,90.45
2022-11-04T08:55:39.026Z,89.63
2022-11-04T08:56:39.820Z,87.18
2022-11-04T08:57:39.200Z,86.63
2022-11-04T08:58:38.982Z,86.47
2022-11-04T08:59:39.911Z,86.83
2022-11-04T09:00:38.998Z,87.35
2022-11-04T09:01:39.061Z,87.35
2022-11-04T09:02:39.112Z,85.57
2022-11-04T09:03:39.029Z,85.37
2022-11-04T09:04:38.938Z,85.68
2022-11-04T09:05:38.908Z,85.16
2022-11-04T09:06:38.975Z,85.45
2022-11-04T09:07:39.031Z,85.65
2022-11-04T09:08:38.880Z,86.41
2022-11-04T09:09:38.906Z,87.37
2022-11-04T09:10:39.413Z,87.12
2022-11-04T09:11:38.862Z,87.18
2022-11-04T09:12:38.935Z,86.77
2022-11-04T09:13:39.845Z,86.08
2022-11-04T09:14:39.943Z,85.61
2022-11-04T09:15:38.862Z,85.98
2022-11-04T09:16:40.156Z,85.06
2022-11-04T09:17:38.820Z,85.13
2022-11-04T09:19:10.749Z,84.94
2022-11-04T09:19:38.878Z,83.68
2022-11-04T09:20:38.839Z,82.18
2022-11-04T09:21:38.795Z,82.20
2022-11-04T09:22:43.103Z,81.01
2022-11-04T09:23:40.779Z,79.45
2022-11-04T09:24:38.778Z,78.46
2022-11-04T09:25:38.772Z,77.14
2022-11-04T09:26:38.767Z,77.14
2022-11-04T09:27:38.765Z,77.22
2022-11-04T09:28:38.748Z,78.57
2022-11-04T09:29:38.719Z,78.81
2022-11-04T09:30:39.334Z,79.02
2022-11-04T09:31:38.722Z,80.62
2022-11-04T09:32:38.720Z,80.41
2022-11-04T09:33:38.701Z,80.72
2022-11-04T09:34:38.700Z,80.31
2022-11-04T09:35:38.708Z,80.76
2022-11-04T09:36:38.687Z,82.07
2022-11-04T09:37:38.652Z,80.96
2022-11-04T09:38:38.862Z,81.87
2022-11-04T09:39:38.633Z,81.81
2022-11-04T09:40:38.656Z,82.21
2022-11-04T09:41:38.691Z,82.35
2022-11-04T09:42:38.622Z,82.40
2022-11-04T09:43:38.612Z,83.15
2022-11-04T09:44:53.631Z,83.59
2022-11-04T09:45:40.615Z,83.70
2022-11-04T09:46:39.060Z,84.66
2022-11-04T09:47:38.585Z,84.86
2022-11-04T09:48:38.616Z,85.21
2022-11-04T09:49:38.576Z,85.30
2022-11-04T09:50:38.588Z,84.59
2022-11-04T09:51:55.621Z,85.82
2022-11-04T09:52:40.573Z,85.61
2022-11-04T09:53:38.556Z,85.37
2022-11-04T09:54:40.832Z,85.02
2022-11-04T09:55:39.513Z,84.47
2022-11-04T09:56:38.515Z,84.03
2022-11-04T09:57:38.559Z,83.27
2022-11-04T09:58:38.494Z,82.60
2022-11-04T09:59:38.489Z,82.50
2022-11-04T10:00:38.505Z,82.90
2022-11-04T10:01:38.552Z,83.62
2022-11-04T10:02:39.483Z,84.64
2022-11-04T10:03:38.464Z,83.72
2022-11-04T10:04:38.497Z,83.42
2022-11-04T10:05:38.476Z,83.42
2022-11-04T10:06:38.457Z,83.45
2022-11-04T10:07:38.525Z,82.60
2022-11-04T10:08:38.449Z,83.37
2022-11-04T10:09:38.405Z,82.26
2022-11-04T10:10:38.522Z,81.91
2022-11-04T10:11:38.399Z,80.96
2022-11-04T10:12:38.440Z,79.84
2022-11-04T10:13:38.438Z,80.15
2022-11-04T10:14:38.387Z,79.84
2022-11-04T10:15:38.388Z,79.80
2022-11-04T10:16:38.366Z,79.29
2022-11-04T10:17:38.365Z,80.11
2022-11-04T10:18:38.341Z,79.66
2022-11-04T10:19:38.360Z,79.52
2022-11-04T10:20:43.492Z,78.81
2022-11-04T10:21:40.310Z,79.83
2022-11-04T10:22:38.317Z,79.12
2022-11-04T10:23:38.308Z,79.12
2022-11-04T10:24:38.320Z,78.30
2022-11-04T10:25:38.311Z,78.71
2022-11-04T10:26:38.387Z,78.91
2022-11-04T10:27:38.283Z,78.71
2022-11-04T10:28:38.299Z,79.86
2022-11-04T10:29:38.287Z,79.46
2022-11-04T10:30:38.277Z,80.07
2022-11-04T10:31:38.237Z,79.77
2022-11-04T10:32:38.240Z,79.42
2022-11-04T10:33:38.227Z,79.83
2022-11-04T10:34:38.283Z,79.72
2022-11-04T10:35:38.214Z,78.37
2022-11-04T10:36:38.195Z,77.36
2022-11-04T10:37:38.190Z,78.00
2022-11-04T10:38:38.194Z,76.78
2022-11-04T10:39:38.201Z,77.49
2022-11-04T10:40:38.200Z,77.49
2022-11-04T10:41:38.182Z,76.78
2022-11-04T10:42:38.370Z,76.88
2022-11-04T10:43:38.161Z,77.70
2022-11-04T10:44:38.135Z,77.49
2022-11-04T10:45:38.155Z,77.22
2022-11-04T10:46:38.791Z,77.73
2022-11-04T10:47:39.110Z,78.24
2022-11-04T10:48:38.136Z,77.33
2022-11-04T10:49:38.099Z,77.43
2022-11-04T10:50:38.090Z,77.09
2022-11-04T10:51:38.102Z,76.95
2022-11-04T10:52:38.786Z,77.01
2022-11-04T10:53:38.090Z,75.46
2022-11-04T10:54:38.085Z,74.00
2022-11-04T10:55:39.011Z,74.51
2022-11-04T10:56:38.196Z,74.77
2022-11-04T10:57:38.102Z,74.95
2022-11-04T10:58:38.042Z,75.59
2022-11-04T10:59:38.101Z,76.68
2022-11-04T11:00:38.150Z,79.19
2022-11-04T11:01:38.377Z,78.24
2022-11-04T11:02:38.001Z,79.16
2022-11-04T11:03:38.029Z,78.47
2022-11-04T11:04:37.972Z,77.01
2022-11-04T11:05:37.994Z,76.47
2022-11-04T11:06:37.972Z,76.61
2022-11-04T11:07:37.988Z,77.12
2022-11-04T11:08:37.983Z,75.66
2022-11-04T11:09:37.977Z,74.34
2022-11-04T11:10:37.956Z,75.12
2022-11-04T11:11:37.942Z,74.30
2022-11-04T11:12:50.940Z,75.42
2022-11-04T11:13:39.940Z,75.19
2022-11-04T11:14:37.930Z,76.95
2022-11-04T11:15:37.891Z,76.85
2022-11-04T11:16:37.905Z,76.64
2022-11-04T11:17:37.886Z,76.10
2022-11-04T11:18:37.887Z,76.54
2022-11-04T11:19:37.874Z,76.54
2022-11-04T11:20:38.025Z,76.54
2022-11-04T11:21:37.870Z,76.34
2022-11-04T11:22:37.888Z,76.68
2022-11-04T11:23:37.857Z,77.59
2022-11-04T11:24:37.832Z,77.22
2022-11-04T11:25:37.852Z,77.56
2022-11-04T11:26:37.877Z,77.43
2022-11-04T11:27:37.823Z,76.98
2022-11-04T11:28:37.842Z,76.34
2022-11-04T11:29:37.807Z,75.76
2022-11-04T11:30:37.799Z,75.67
2022-11-04T11:31:37.795Z,75.22
2022-11-04T11:32:37.773Z,74.85
2022-11-04T11:33:37.839Z,75.60
2022-11-04T11:34:37.771Z,75.83
2022-11-04T11:35:37.805Z,75.46
2022-11-04T11:36:37.758Z,75.93
2022-11-04T11:37:37.770Z,75.63
2022-11-04T11:38:37.774Z,75.63
2022-11-04T11:39:37.755Z,75.32
2022-11-04T11:40:43.838Z,75.36
2022-11-04T11:41:43.954Z,75.87
2022-11-04T11:42:39.756Z,76.17
2022-11-04T11:43:37.710Z,76.10
2022-11-04T11:44:37.682Z,76.61
2022-11-04T11:45:37.671Z,76.41
2022-11-04T11:46:37.695Z,76.31
2022-11-04T11:47:37.726Z,77.02
2022-11-04T11:48:37.690Z,76.65
2022-11-04T11:49:37.668Z,76.75
2022-11-04T11:50:37.707Z,77.20
2022-11-04T11:51:37.628Z,77.56
2022-11-04T11:52:37.609Z,77.70
2022-11-04T11:53:37.614Z,77.67
2022-11-04T11:54:37.622Z,77.77
2022-11-04T11:55:37.610Z,78.58
2022-11-04T11:56:59.299Z,77.12
2022-11-04T11:57:39.932Z,76.72
2022-11-04T12:00:41.073Z,75.63
2022-11-04T12:01:37.730Z,75.49
2022-11-04T12:02:37.643Z,75.32
2022-11-04T12:09:39.487Z,75.52
2022-11-04T12:10:50.275Z,76.51
2022-11-04T12:11:39.494Z,75.70
2022-11-04T12:12:38.400Z,75.49
2022-11-04T12:13:37.466Z,75.19
2022-11-04T12:14:37.484Z,74.82
2022-11-04T12:15:37.447Z,75.93
2022-11-04T12:16:37.447Z,75.70
2022-11-04T12:17:38.492Z,75.19
2022-11-04T12:18:37.428Z,75.70
2022-11-04T12:19:37.454Z,75.19
2022-11-04T12:20:37.461Z,74.92
2022-11-04T12:21:37.405Z,75.12
2022-11-04T12:22:37.417Z,75.46
2022-11-04T12:23:37.397Z,75.67
2022-11-04T12:24:37.409Z,76.78
2022-11-04T12:25:37.437Z,76.17
2022-11-04T12:26:37.365Z,76.03
2022-11-04T12:27:37.389Z,75.43
2022-11-04T12:28:37.352Z,75.56
2022-11-04T12:29:37.362Z,75.52
2022-11-04T12:30:38.685Z,75.43
2022-11-04T12:31:38.401Z,75.43
2022-11-04T12:32:37.325Z,74.92
2022-11-04T12:33:37.351Z,75.16
2022-11-04T12:34:37.314Z,75.36
2022-11-04T12:35:37.330Z,74.48
2022-11-04T12:36:42.633Z,75.29
2022-11-04T12:37:39.299Z,75.63
2022-11-04T12:38:37.283Z,75.63
2022-11-04T12:39:37.272Z,75.43
2022-11-04T12:40:37.271Z,75.53
2022-11-04T12:42:06.371Z,75.53
2022-11-04T12:42:39.254Z,75.49
2022-11-04T12:43:37.232Z,75.29
2022-11-04T12:44:38.254Z,75.19
2022-11-04T12:45:37.220Z,75.29
2022-11-04T12:46:37.200Z,75.60
2022-11-04T12:47:37.960Z,75.40
2022-11-04T12:48:37.203Z,75.16
2022-11-04T12:49:37.185Z,75.05
2022-11-04T12:50:37.199Z,75.02
2022-11-04T12:51:37.181Z,75.05
2022-11-04T12:52:37.272Z,75.02
2022-11-04T12:53:37.227Z,74.71
2022-11-04T12:54:37.154Z,74.01
2022-11-04T12:55:43.355Z,74.01
2022-11-04T12:56:39.137Z,74.34
2022-11-04T12:57:37.226Z,73.74
2022-11-04T12:58:37.162Z,75.46
2022-11-04T12:59:37.109Z,75.26
2022-11-04T13:00:37.223Z,74.34
2022-11-04T13:01:37.197Z,74.04
2022-11-04T13:02:37.149Z,73.70
2022-11-04T13:03:37.093Z,71.88
2022-11-04T13:04:37.087Z,70.76
2022-11-04T13:05:37.126Z,71.06
2022-11-04T13:06:37.146Z,71.26
2022-11-04T13:07:37.046Z,70.86
2022-11-04T13:08:37.053Z,71.26
2022-11-04T13:09:37.043Z,70.96
2022-11-04T13:10:37.029Z,71.57
2022-11-04T13:11:37.024Z,71.60
2022-11-04T13:12:37.019Z,71.77
2022-11-04T13:13:37.024Z,71.09
2022-11-04T13:14:37.016Z,71.91
2022-11-04T13:15:37.046Z,71.80
2022-11-04T13:16:37.013Z,72.11
2022-11-04T13:17:36.993Z,71.40
2022-11-04T13:18:36.992Z,71.40
2022-11-04T13:19:36.955Z,71.20
2022-11-04T13:20:36.958Z,71.80
2022-11-04T13:21:36.935Z,71.70
2022-11-04T13:22:36.969Z,71.70
2022-11-04T13:23:36.988Z,71.94
2022-11-04T13:24:36.913Z,71.30
2022-11-04T13:25:36.983Z,71.80
2022-11-04T13:26:36.936Z,71.80
2022-11-04T13:27:37.511Z,71.43
2022-11-04T13:28:36.895Z,72.25
2022-11-04T13:29:36.974Z,72.52
2022-11-04T13:30:36.897Z,71.94
2022-11-04T13:31:36.924Z,73.06
2022-11-04T13:32:36.848Z,71.73
2022-11-04T13:33:36.846Z,71.84
2022-11-04T13:34:36.894Z,72.25
2022-11-04T13:35:36.894Z,73.26
2022-11-04T13:36:36.865Z,72.34
2022-11-04T13:37:36.803Z,73.97
2022-11-04T13:38:36.867Z,73.67
2022-11-04T13:39:36.801Z,74.28
2022-11-04T13:40:36.886Z,74.18
2022-11-04T13:41:36.877Z,73.91
2022-11-04T13:42:36.777Z,73.60
2022-11-04T13:43:36.788Z,73.91
2022-11-04T13:44:36.805Z,74.21
2022-11-04T13:45:37.789Z,74.41
2022-11-04T13:46:36.812Z,74.55
2022-11-04T13:47:36.841Z,74.96
2022-11-04T13:48:36.845Z,74.96
2022-11-04T13:49:36.724Z,75.81
2022-11-04T13:50:36.758Z,75.87
2022-11-04T13:51:36.728Z,74.99
2022-11-04T13:52:36.735Z,75.70
2022-11-04T13:53:36.729Z,75.91
2022-11-04T13:54:36.695Z,76.31
2022-11-04T13:55:36.767Z,76.56
2022-11-04T13:56:37.337Z,76.56
2022-11-04T13:57:36.692Z,76.56
2022-11-04T13:58:36.689Z,76.76
2022-11-04T13:59:36.741Z,76.90
2022-11-04T14:00:36.648Z,77.17
2022-11-04T14:01:36.725Z,77.20
2022-11-04T14:02:36.733Z,77.47
2022-11-04T14:03:36.628Z,77.26
2022-11-04T14:04:36.610Z,77.98
2022-11-04T14:05:36.609Z,77.37
2022-11-04T14:06:36.615Z,78.59
2022-11-04T14:07:36.593Z,78.73
2022-11-04T14:08:37.053Z,78.49
2022-11-04T14:09:36.598Z,78.69
2022-11-04T14:10:36.564Z,78.49
2022-11-04T14:11:38.927Z,78.69
2022-11-04T14:12:37.542Z,79.14
2022-11-04T14:13:36.557Z,79.10
2022-11-04T14:14:36.529Z,79.61
2022-11-04T14:15:36.528Z,79.03
2022-11-04T14:16:36.522Z,79.61
2022-11-04T14:17:36.518Z,79.44
2022-11-04T14:18:36.514Z,80.11
2022-11-04T14:19:36.512Z,80.02
2022-11-04T14:20:36.497Z,79.95
2022-11-04T14:21:36.485Z,79.85
2022-11-04T14:22:36.526Z,80.56
2022-11-04T14:23:36.470Z,80.46
2022-11-04T14:24:36.463Z,80.16
2022-11-04T14:25:36.498Z,80.87
2022-11-04T14:26:36.442Z,80.80
2022-11-04T14:27:36.434Z,80.77
2022-11-04T14:28:36.425Z,80.60
2022-11-04T14:29:36.409Z,80.77
2022-11-04T14:30:36.430Z,80.91
2022-11-04T14:31:36.469Z,80.60
2022-11-04T14:32:36.391Z,80.91
2022-11-04T14:33:36.382Z,80.60
2022-11-04T14:34:36.392Z,81.21
2022-11-04T14:35:36.442Z,80.80
2022-11-04T14:36:36.432Z,81.04
2022-11-04T14:37:36.361Z,80.80
2022-11-04T14:38:36.357Z,81.31
2022-11-04T14:39:36.352Z,81.25
2022-11-04T14:40:36.355Z,81.56
2022-11-04T14:41:36.335Z,82.37
2022-11-04T14:42:36.376Z,82.17
2022-11-04T14:43:36.306Z,81.96
2022-11-04T14:44:36.312Z,82.17
2022-11-04T14:45:36.423Z,82.10
2022-11-04T14:46:36.373Z,82.27
2022-11-04T14:47:36.394Z,81.86
2022-11-04T14:48:37.006Z,81.96
2022-11-04T14:49:36.272Z,82.47
2022-11-04T14:50:36.248Z,82.68
2022-11-04T14:51:36.273Z,82.37
2022-11-04T14:52:36.251Z,82.47
2022-11-04T14:53:36.227Z,82.78
2022-11-04T14:54:36.219Z,81.76
2022-11-04T14:55:36.237Z,82.17
2022-11-04T14:56:36.233Z,82.98
2022-11-04T14:57:36.209Z,82.47
2022-11-04T14:58:36.329Z,82.78
2022-11-04T14:59:36.216Z,82.47
2022-11-04T15:00:36.229Z,82.71
2022-11-04T15:01:36.273Z,82.61
2022-11-04T15:02:36.222Z,82.71
2022-11-04T15:04:10.061Z,83.43
2022-11-04T15:04:38.192Z,83.02
2022-11-04T15:05:36.183Z,82.37
2022-11-04T15:06:53.608Z,83.49
2022-11-04T15:07:38.118Z,82.88
2022-11-04T15:08:36.124Z,83.70
2022-11-04T15:09:36.115Z,83.70
2022-11-04T15:10:36.120Z,83.90
2022-11-04T15:11:36.082Z,83.59
2022-11-04T15:12:36.079Z,83.90
2022-11-04T15:13:36.088Z,83.80
2022-11-04T15:14:36.086Z,83.39
2022-11-04T15:15:36.109Z,83.63
2022-11-04T15:16:36.076Z,83.80
2022-11-04T15:17:36.849Z,83.18
2022-11-04T15:19:07.960Z,83.29
2022-11-04T15:19:36.077Z,83.12
2022-11-04T15:20:36.221Z,83.39
2022-11-04T15:21:36.022Z,83.73
2022-11-04T15:22:37.128Z,83.63
2022-11-04T15:23:36.009Z,83.94
2022-11-04T15:24:36.004Z,83.84
2022-11-04T15:25:35.989Z,83.43
2022-11-04T15:26:36.001Z,83.73
2022-11-04T15:27:35.995Z,83.84
2022-11-04T15:28:35.936Z,84.04
2022-11-04T15:29:35.941Z,83.84
2022-11-04T15:30:37.023Z,84.86
2022-11-04T15:31:35.966Z,84.45
2022-11-04T15:32:36.050Z,84.66
2022-11-04T15:33:35.918Z,84.49
2022-11-04T15:34:37.516Z,84.75
2022-11-04T15:35:35.902Z,85.00
2022-11-04T15:36:37.041Z,84.69
2022-11-04T15:37:35.892Z,84.59
2022-11-04T15:38:35.884Z,85.30
2022-11-04T15:39:36.379Z,84.90
2022-11-04T15:40:35.855Z,85.30
2022-11-04T15:41:38.604Z,84.90
2022-11-04T15:42:36.846Z,85.51
2022-11-04T15:43:35.853Z,85.10
2022-11-04T15:44:35.903Z,85.10
2022-11-04T15:45:35.852Z,84.53
2022-11-04T15:46:35.838Z,85.30
2022-11-04T15:47:35.844Z,85.35
2022-11-04T15:48:35.797Z,85.55
2022-11-04T15:49:35.821Z,85.65
2022-11-04T15:50:35.806Z,85.65
2022-11-04T15:51:35.788Z,86.16
2022-11-04T15:52:35.805Z,86.71
2022-11-04T15:53:35.767Z,86.67
2022-11-04T15:54:35.780Z,87.02
2022-11-04T15:55:35.744Z,87.53
2022-11-04T15:56:35.805Z,87.32
2022-11-04T15:57:35.758Z,87.53
2022-11-04T15:58:35.725Z,87.43
2022-11-04T15:59:35.721Z,87.53
2022-11-04T16:00:35.742Z,87.37
2022-11-04T16:01:38.509Z,87.47
2022-11-04T16:02:35.721Z,87.37
2022-11-04T16:03:36.495Z,88.08
2022-11-04T16:04:35.693Z,88.29
2022-11-04T16:05:35.676Z,88.59
2022-11-04T16:06:35.654Z,88.53
2022-11-04T16:07:35.679Z,88.49
2022-11-04T16:08:35.660Z,88.53
2022-11-04T16:09:35.649Z,88.43
2022-11-04T16:10:35.626Z,88.64
2022-11-04T16:11:36.590Z,88.23
2022-11-04T16:12:35.613Z,88.84
2022-11-04T16:13:35.622Z,89.15
2022-11-04T16:14:38.455Z,90.00
2022-11-04T16:15:35.673Z,90.31
2022-11-04T16:16:36.661Z,90.31
2022-11-04T16:17:35.578Z,90.62
2022-11-04T16:18:35.567Z,90.86
2022-11-04T16:19:35.624Z,90.25
2022-11-04T16:20:35.578Z,90.82
2022-11-04T16:21:35.538Z,90.45
2022-11-04T16:22:35.541Z,90.72
2022-11-04T16:23:35.548Z,90.52
2022-11-04T16:24:35.525Z,91.07
2022-11-04T16:25:36.481Z,90.45
2022-11-04T16:26:36.542Z,90.56
2022-11-04T16:27:36.074Z,90.66
2022-11-04T16:28:37.050Z,90.77
2022-11-04T16:29:35.486Z,90.45
2022-11-04T16:30:35.490Z,90.77
2022-11-04T16:31:36.533Z,91.27
2022-11-04T16:32:36.388Z,90.97
2022-11-04T16:33:35.443Z,91.48
2022-11-04T16:34:35.511Z,91.27
2022-11-04T16:35:36.427Z,91.48
2022-11-04T16:36:36.149Z,91.22
2022-11-04T16:37:36.456Z,91.89
2022-11-04T16:38:35.447Z,91.73
2022-11-04T16:39:35.428Z,91.73
2022-11-04T16:40:35.407Z,91.78
2022-11-04T16:41:35.396Z,92.03
2022-11-04T16:42:35.398Z,92.14
2022-11-04T16:43:35.385Z,92.24
2022-11-04T16:44:35.378Z,92.03
2022-11-04T16:45:35.373Z,92.24
2022-11-04T16:46:35.406Z,92.03
2022-11-04T16:47:38.016Z,93.00
2022-11-04T16:48:35.323Z,92.90
2022-11-04T16:49:35.333Z,92.79
2022-11-04T16:50:35.343Z,93.06
2022-11-04T16:51:35.358Z,93.10
2022-11-04T16:52:41.636Z,93.10
2022-11-04T16:53:37.326Z,92.49
2022-11-04T16:54:35.385Z,92.90
2022-11-04T16:55:37.389Z,93.10
2022-11-04T16:56:35.280Z,92.85
2022-11-04T16:57:36.048Z,92.90
2022-11-04T16:58:35.294Z,92.96
2022-11-04T16:59:35.285Z,93.20
2022-11-04T17:00:35.246Z,93.20
2022-11-04T17:01:35.353Z,93.41
2022-11-04T17:02:35.304Z,93.10